Weather at Harbor Springs Airport

Public forecast

Using degrees Fahrenheit for public forecast. Weather courtesy of forecast.io.

Current aviation weather report (METAR) for Harbor Springs Airport

Retrieved 2021/10/28 10:15 UTC (0 seconds ago):

KMGN 281015Z AUTO 06007KT 10SM SCT016 08/07 A2991 RMK AO2 T00850076

Closest aviation forecast (TAF) to Harbor Springs Airport

Closest forecast is Pellston Regional Airport of Emmet County Airport, 10.0 nm (18.5 km) NNE. Retrieved 2021/10/28 06:24 UTC (4 hours ago):

TAF KPLN 280521Z 2806/2906 13006KT P6SM OVC010 FM281400 10005KT P6SM OVC012 FM281600 10009KT P6SM BKN026 FM281800 09010G16KT P6SM BKN220 FM290300 09007KT P6SM BKN150